Time;durP1;ratioP1;P1;durP2;ratioP2;P2;SDS_P1;SDS_P2;PMS_P1;PMS_P2;Temp;Humidity;BMP_temperature;BMP_pressure;BME280_temperature;BME280_humidity;BME280_pressure;Samples;Min_cycle;Max_cycle;Signal;HPM_P1;HPM_P2
2023/08/23 00:00:19;;;;;;;4.73;4.10;;;19.30;99.90;;;19.18;72.35;101266.22;5035951;28;20195;-74
2023/08/23 00:02:53;;;;;;;5.57;4.30;;;19.30;99.90;;;19.18;72.92;101257.25;5035868;28;20281;-75
2023/08/23 00:05:25;;;;;;;6.27;4.73;;;19.30;99.90;;;19.11;72.82;101265.38;5036080;28;20204;-74
2023/08/23 00:07:57;;;;;;;4.63;3.90;;;19.20;99.90;;;19.14;72.59;101269.59;5035878;28;20245;-74
2023/08/23 00:10:29;;;;;;;4.87;4.10;;;19.30;99.90;;;19.12;72.79;101266.22;5035430;28;20664;-74
2023/08/23 00:13:01;;;;;;;4.80;4.27;;;19.20;99.90;;;19.17;72.67;101263.75;5035366;28;20595;-74
2023/08/23 00:15:33;;;;;;;5.23;4.20;;;19.30;99.90;;;19.15;72.68;101265.81;5035595;28;20239;-74
2023/08/23 00:18:06;;;;;;;5.73;4.47;;;19.30;99.90;;;19.04;73.66;101264.50;5035510;28;20648;-74
2023/08/23 00:20:38;;;;;;;5.33;4.27;;;19.10;99.90;;;18.97;73.30;101269.06;5035586;28;20191;-74
2023/08/23 00:23:10;;;;;;;5.47;4.50;;;19.10;99.90;;;18.92;73.80;101277.00;5035426;28;20230;-75
2023/08/23 00:25:42;;;;;;;5.00;4.43;;;19.00;99.90;;;18.84;73.81;101279.03;5035517;28;20183;-74
2023/08/23 00:28:15;;;;;;;6.13;4.67;;;18.90;99.90;;;18.82;74.07;101281.94;5035410;28;20187;-74
2023/08/23 00:30:55;;;;;;;5.33;4.30;;;19.00;99.90;;;18.85;74.04;101276.13;5035343;28;20190;-74
2023/08/23 00:33:28;;;;;;;5.37;4.63;;;19.00;99.90;;;18.77;74.33;101279.00;5034949;28;20774;-75
2023/08/23 00:36:00;;;;;;;6.13;4.43;;;18.90;99.90;;;18.82;74.10;101276.53;5035212;28;20215;-74
2023/08/23 00:38:32;;;;;;;7.83;5.17;;;18.90;99.90;;;18.78;74.39;101275.25;5035265;28;20249;-74
2023/08/23 00:41:04;;;;;;;5.47;4.90;;;18.90;99.90;;;18.82;73.72;101264.84;5035207;28;20214;-74
2023/08/23 00:43:36;;;;;;;7.10;5.03;;;19.00;99.90;;;18.78;74.93;101268.97;5035056;28;20261;-74
2023/08/23 00:46:09;;;;;;;6.93;4.80;;;18.90;99.90;;;18.84;74.42;101271.72;5034636;28;20744;-74
2023/08/23 00:48:43;;;;;;;6.90;4.33;;;19.00;99.90;;;18.83;73.80;101266.53;5035283;28;20191;-74
2023/08/23 00:51:16;;;;;;;6.10;4.43;;;19.00;99.90;;;18.81;74.27;101268.56;5034960;28;20281;-74
2023/08/23 00:53:49;;;;;;;9.73;5.00;;;18.90;99.90;;;18.80;74.26;101275.06;5035122;28;20237;-74
2023/08/23 00:56:21;;;;;;;5.73;4.83;;;19.00;99.90;;;18.79;74.65;101265.25;5033988;28;20197;-74
2023/08/23 00:58:54;;;;;;;9.57;5.17;;;19.00;99.90;;;18.80;75.03;101269.63;5034838;28;20193;-74
2023/08/23 01:01:26;;;;;;;12.23;5.27;;;19.00;99.90;;;18.79;74.87;101270.66;5034492;28;20198;-75
2023/08/23 01:04:01;;;;;;;7.13;5.10;;;18.90;99.90;;;18.79;74.88;101270.66;5034645;28;20234;-74
2023/08/23 01:06:52;;;;;;;7.37;5.30;;;18.90;99.90;;;18.78;74.67;101272.53;5034764;28;20200;-74
2023/08/23 01:09:36;;;;;;;10.20;5.17;;;19.00;99.90;;;18.70;74.71;101268.09;5034612;28;20305;-74
2023/08/23 01:12:16;;;;;;;7.33;5.50;;;18.90;99.90;;;18.70;74.77;101262.69;5034598;28;20190;-75
2023/08/23 01:14:59;;;;;;;8.33;5.67;;;18.90;99.90;;;18.72;75.12;101259.78;5034382;28;20325;-75
2023/08/23 01:17:33;;;;;;;8.60;5.50;;;18.90;99.90;;;18.74;75.08;101250.41;5034451;28;20195;-74
2023/08/23 01:20:09;;;;;;;6.50;5.50;;;19.00;99.90;;;18.70;75.26;101256.41;5034448;28;20194;-75
2023/08/23 01:22:49;;;;;;;9.30;5.87;;;18.90;99.90;;;18.62;75.16;101257.44;5033974;28;20725;-76
2023/08/23 01:25:23;;;;;;;12.67;5.87;;;18.80;99.90;;;18.62;74.64;101265.59;5034348;28;20182;-76
2023/08/23 01:27:55;;;;;;;10.13;5.90;;;18.80;99.90;;;18.62;75.24;101254.72;5034306;28;20198;-76
2023/08/23 01:30:29;;;;;;;6.73;5.03;;;18.80;99.90;;;18.61;75.19;101250.34;5034184;28;20198;-75
2023/08/23 01:33:07;;;;;;;7.33;5.90;;;18.80;99.90;;;18.51;75.22;101263.41;5034413;28;20258;-75
2023/08/23 01:35:52;;;;;;;8.10;5.90;;;18.70;99.90;;;18.46;75.52;101263.13;5037510;28;20217;-74
2023/08/23 01:38:27;;;;;;;7.07;5.47;;;18.60;99.90;;;18.49;74.98;101249.19;5037120;28;20304;-74
2023/08/23 01:41:00;;;;;;;8.27;5.47;;;18.70;99.90;;;18.49;75.07;101260.03;5033782;28;20233;-75
2023/08/23 01:43:32;;;;;;;7.27;5.40;;;18.70;99.90;;;18.40;74.60;101261.22;5033742;28;20647;-76
2023/08/23 01:46:04;;;;;;;8.53;5.87;;;18.60;99.90;;;18.29;75.70;101255.53;5033588;28;20245;-76
2023/08/23 01:48:36;;;;;;;10.83;6.03;;;18.50;99.90;;;18.20;76.60;101261.09;5033957;28;20282;-76
2023/08/23 01:51:08;;;;;;;9.37;5.53;;;18.40;99.90;;;18.19;76.47;101264.84;5033920;28;20205;-75
2023/08/23 01:53:40;;;;;;;8.73;5.30;;;18.40;99.90;;;18.15;76.74;101262.72;5033703;28;20655;-75
2023/08/23 01:56:13;;;;;;;6.27;5.57;;;18.30;99.90;;;18.10;77.05;101260.59;5033775;28;20211;-75
2023/08/23 01:58:46;;;;;;;11.77;6.67;;;18.30;99.90;;;18.08;77.62;101278.09;5033814;28;20249;-75
2023/08/23 02:01:17;;;;;;;7.07;5.73;;;18.30;99.90;;;18.02;77.43;101262.59;5034017;28;20234;-75
2023/08/23 02:03:49;;;;;;;9.07;5.97;;;18.20;99.90;;;18.01;77.35;101269.91;5033319;28;20253;-75
2023/08/23 02:06:21;;;;;;;6.87;5.87;;;18.20;99.90;;;18.03;76.47;101270.56;5033279;28;20189;-75
2023/08/23 02:08:53;;;;;;;9.30;6.40;;;18.30;99.90;;;17.95;77.16;101275.25;5032688;28;20656;-75
2023/08/23 02:11:26;;;;;;;7.07;6.00;;;18.30;99.90;;;17.98;77.75;101266.75;5033616;28;20282;-75
2023/08/23 02:13:58;;;;;;;8.77;5.53;;;18.20;99.90;;;17.95;77.16;101275.25;5033475;28;20231;-75
2023/08/23 02:16:30;;;;;;;9.43;6.20;;;18.20;99.90;;;17.87;77.55;101281.66;5033475;28;20314;-75
2023/08/23 02:19:02;;;;;;;8.53;6.03;;;18.10;99.90;;;17.89;77.48;101276.03;5033477;28;20230;-75
2023/08/23 02:21:34;;;;;;;7.83;6.40;;;18.10;99.90;;;17.88;77.80;101283.31;5033215;28;20559;-75
2023/08/23 02:24:08;;;;;;;7.20;6.10;;;18.10;99.90;;;17.95;77.18;101284.22;5033113;28;20573;-75
2023/08/23 02:26:41;;;;;;;8.13;5.77;;;18.20;99.90;;;17.91;77.49;101274.81;5033425;28;20278;-75
2023/08/23 02:29:13;;;;;;;11.77;6.57;;;18.20;99.90;;;17.87;77.37;101278.97;5033396;28;20191;-75
2023/08/23 02:31:45;;;;;;;9.03;6.53;;;18.10;99.90;;;17.85;76.74;101272.03;5033412;28;20195;-75
2023/08/23 02:34:16;;;;;;;6.83;5.97;;;18.10;99.90;;;17.72;77.29;101273.59;5033004;28;20708;-75
2023/08/23 02:36:48;;;;;;;11.70;6.23;;;18.00;99.90;;;17.70;77.15;101264.00;5033526;28;20246;-75
2023/08/23 02:39:20;;;;;;;8.23;6.40;;;17.90;99.90;;;17.70;77.24;101262.16;5033350;28;20274;-75
2023/08/23 02:41:53;;;;;;;6.87;6.07;;;18.00;99.90;;;17.76;77.04;101263.22;5033420;28;20201;-75
2023/08/23 02:44:25;;;;;;;11.40;6.77;;;18.00;99.90;;;17.63;76.52;101253.13;5032981;28;20568;-75
2023/08/23 02:46:57;;;;;;;9.40;6.33;;;17.90;99.90;;;17.61;77.87;101263.28;5033054;28;20264;-74
2023/08/23 02:49:29;;;;;;;9.57;6.63;;;17.90;99.90;;;17.69;76.57;101260.47;5033285;28;20205;-75
2023/08/23 02:52:01;;;;;;;13.43;6.40;;;18.00;99.90;;;17.61;77.42;101262.44;5032976;28;20641;-75
2023/08/23 02:54:34;;;;;;;11.50;6.93;;;17.90;99.90;;;17.66;77.35;101252.72;5033177;28;20296;-75
2023/08/23 02:57:07;;;;;;;8.43;5.90;;;17.90;99.90;;;17.74;76.86;101258.00;5033217;28;20214;-75
2023/08/23 02:59:39;;;;;;;8.70;5.70;;;18.10;99.90;;;17.77;76.60;101242.41;5033183;28;20286;-75
2023/08/23 03:02:12;;;;;;;9.63;6.70;;;18.10;99.90;;;17.68;76.32;101249.81;5033176;28;20213;-75
2023/08/23 03:04:45;;;;;;;7.23;6.37;;;18.00;99.90;;;17.66;76.18;101241.91;5033281;28;20313;-75
2023/08/23 03:07:16;;;;;;;10.00;6.57;;;18.00;99.90;;;17.69;75.97;101256.91;5033157;28;20188;-75
2023/08/23 03:09:48;;;;;;;7.80;6.33;;;18.00;99.90;;;17.69;75.85;101246.91;5033080;28;20187;-74
2023/08/23 03:12:21;;;;;;;7.80;6.40;;;18.00;99.90;;;17.65;76.66;101251.03;5032715;28;20661;-75
2023/08/23 03:14:54;;;;;;;6.80;6.10;;;17.90;99.90;;;17.65;75.80;101256.47;5032535;28;20231;-75
2023/08/23 03:17:25;;;;;;;8.73;6.67;;;18.00;99.90;;;17.59;76.21;101241.00;5032733;28;20207;-74
2023/08/23 03:19:58;;;;;;;8.97;6.80;;;17.90;99.90;;;17.53;76.67;101247.16;5036317;28;20198;-75
2023/08/23 03:22:29;;;;;;;11.80;6.60;;;17.90;99.90;;;17.54;75.73;101243.41;5036660;28;20280;-75
2023/08/23 03:25:01;;;;;;;8.13;6.83;;;17.80;99.90;;;17.46;75.83;101246.25;5036587;28;20227;-75
2023/08/23 03:27:34;;;;;;;9.03;7.20;;;17.90;99.90;;;17.40;76.81;101247.00;5036249;28;20245;-75
2023/08/23 03:30:08;;;;;;;9.37;7.00;;;17.60;99.90;;;17.43;76.51;101252.03;5036293;28;20747;-75
2023/08/23 03:32:40;;;;;;;9.20;7.03;;;17.80;99.90;;;17.40;77.16;101247.00;5036362;28;20198;-75
2023/08/23 03:35:12;;;;;;;10.00;6.80;;;17.60;99.90;;;17.39;76.85;101244.50;5036498;28;20194;-75
2023/08/23 03:37:44;;;;;;;10.40;7.27;;;17.70;99.90;;;17.25;77.11;101238.09;5036465;28;20183;-75
2023/08/23 03:40:16;;;;;;;16.40;7.87;;;17.50;99.90;;;17.21;77.02;101247.63;5036194;28;20195;-76
2023/08/23 03:42:49;;;;;;;11.10;7.03;;;17.50;99.90;;;17.14;77.52;101241.31;5035130;28;20234;-76
2023/08/23 03:45:21;;;;;;;9.93;7.63;;;17.40;99.90;;;17.05;77.21;101247.88;5034255;28;20673;-76
2023/08/23 03:47:53;;;;;;;10.03;7.80;;;17.30;99.90;;;17.07;77.66;101252.06;5034213;28;20191;-76
2023/08/23 03:50:25;;;;;;;9.37;7.13;;;17.30;99.90;;;17.04;77.99;101251.59;5033759;28;20671;-76
2023/08/23 03:52:57;;;;;;;8.73;7.80;;;17.30;99.90;;;17.09;77.45;101249.13;5033773;28;20667;-76
2023/08/23 03:55:29;;;;;;;10.17;7.53;;;17.50;99.90;;;17.01;77.57;101249.28;5033995;28;20191;-76
2023/08/23 03:58:02;;;;;;;8.87;7.43;;;17.30;99.90;;;16.93;76.98;101247.50;5034532;28;20245;-75
2023/08/23 04:00:36;;;;;;;10.53;8.20;;;17.20;99.90;;;16.88;78.39;101246.41;5035666;28;20282;-75
2023/08/23 04:03:08;;;;;;;8.90;8.00;;;17.10;99.90;;;16.85;78.09;101244.09;5035546;28;20599;-75
2023/08/23 04:05:44;;;;;;;7.93;6.97;;;17.10;99.90;;;16.84;78.45;101239.69;5035943;28;20351;-75
2023/08/23 04:08:16;;;;;;;14.63;7.23;;;17.10;99.90;;;16.83;77.47;101251.53;5035545;28;20637;-75
2023/08/23 04:10:51;;;;;;;11.73;7.17;;;17.10;99.90;;;16.82;77.32;101247.13;5035838;28;20195;-75
2023/08/23 04:13:25;;;;;;;13.57;7.60;;;17.10;99.90;;;16.83;76.99;101251.53;5035649;28;20309;-75
2023/08/23 04:15:57;;;;;;;9.63;7.33;;;17.00;99.90;;;16.78;77.56;101252.09;5035595;28;20215;-75
2023/08/23 04:18:29;;;;;;;9.27;7.60;;;17.10;99.90;;;16.78;77.85;101251.28;5035663;28;20191;-75
2023/08/23 04:21:04;;;;;;;8.80;7.93;;;17.10;99.90;;;16.74;78.60;101250.81;5035272;28;20191;-75
2023/08/23 04:23:35;;;;;;;8.93;7.50;;;17.00;99.90;;;16.73;78.42;101259.94;5035483;28;20323;-75
2023/08/23 04:26:07;;;;;;;10.50;7.83;;;17.00;99.90;;;16.72;79.10;101247.44;5035506;28;20576;-75
2023/08/23 04:28:40;;;;;;;10.07;8.33;;;17.00;99.90;;;16.70;79.29;101247.66;5035181;28;20748;-75
2023/08/23 04:31:12;;;;;;;10.87;8.13;;;16.90;99.90;;;16.69;79.67;101248.66;5034414;28;20290;-75
2023/08/23 04:33:45;;;;;;;8.70;7.63;;;16.90;99.90;;;16.65;78.73;101246.50;5035267;28;20227;-75
2023/08/23 04:36:18;;;;;;;10.43;8.70;;;16.90;99.90;;;16.64;80.02;101251.06;5035193;28;20787;-75
2023/08/23 04:38:50;;;;;;;13.63;9.17;;;16.90;99.90;;;16.61;79.77;101254.16;5035294;28;20253;-75
2023/08/23 04:41:22;;;;;;;10.80;9.00;;;16.90;99.90;;;16.62;80.97;101247.72;5035231;28;20194;-75
2023/08/23 04:43:55;;;;;;;12.23;8.70;;;16.90;99.90;;;16.61;80.31;101256.03;5035040;28;20662;-75
2023/08/23 04:46:27;;;;;;;10.23;9.13;;;16.90;99.90;;;16.61;80.99;101251.44;5035302;28;20238;-75
2023/08/23 04:48:59;;;;;;;12.97;8.70;;;16.90;99.90;;;16.67;80.63;101249.88;5035112;28;20290;-75
2023/08/23 04:51:31;;;;;;;10.60;8.67;;;17.00;99.90;;;16.68;80.05;101246.97;5035487;28;20653;-75
2023/08/23 04:54:03;;;;;;;16.57;9.57;;;17.00;99.90;;;16.72;80.86;101245.56;5035212;28;20233;-75
2023/08/23 04:56:35;;;;;;;16.57;10.57;;;17.10;99.90;;;16.72;81.60;101248.28;5034817;28;20249;-75
2023/08/23 04:59:08;;;;;;;16.50;9.70;;;17.10;99.90;;;16.76;81.19;101253.31;5034855;28;20275;-75
2023/08/23 05:01:40;;;;;;;16.13;10.10;;;17.10;99.90;;;16.70;80.95;101249.50;5034831;28;20277;-75
2023/08/23 05:04:13;;;;;;;14.47;10.77;;;17.00;99.90;;;16.70;81.17;101255.75;5034689;28;20327;-75
2023/08/23 05:06:45;;;;;;;19.17;11.07;;;17.00;99.90;;;16.69;82.73;101251.38;5034714;28;20191;-75
2023/08/23 05:09:16;;;;;;;27.67;12.87;;;17.00;99.90;;;16.69;82.75;101248.66;5034700;28;20320;-75
2023/08/23 05:11:48;;;;;;;26.67;13.27;;;17.10;99.90;;;16.70;83.21;101250.34;5034571;28;20293;-75
2023/08/23 05:14:25;;;;;;;18.80;11.80;;;17.10;99.90;;;16.67;83.01;101260.69;5034524;28;20238;-75
2023/08/23 05:16:57;;;;;;;17.93;11.13;;;17.10;99.90;;;16.64;83.84;101261.88;5034961;28;20215;-75
2023/08/23 05:19:29;;;;;;;14.47;11.47;;;17.00;99.90;;;16.61;83.36;101262.25;5034114;28;20690;-75
2023/08/23 05:22:01;;;;;;;17.83;11.37;;;17.00;99.90;;;16.66;84.04;101254.44;5034487;28;20278;-75
2023/08/23 05:24:33;;;;;;;17.90;11.97;;;17.00;99.90;;;16.63;84.34;101260.22;5034305;28;20239;-75
2023/08/23 05:27:05;;;;;;;16.63;12.00;;;17.00;99.90;;;16.67;84.20;101266.94;5034602;28;20218;-75
2023/08/23 05:29:39;;;;;;;16.23;11.43;;;17.00;99.90;;;16.68;83.78;101251.53;5034007;28;20637;-75
2023/08/23 05:32:11;;;;;;;17.27;10.80;;;17.20;99.90;;;16.70;83.67;101261.16;5034314;28;20273;-75
2023/08/23 05:34:44;;;;;;;18.43;11.73;;;17.10;99.90;;;16.71;84.30;101264.72;5034483;28;20313;-75
2023/08/23 05:37:16;;;;;;;15.80;10.60;;;17.10;99.90;;;16.69;83.75;101264.88;5036527;28;20221;-75
2023/08/23 05:39:48;;;;;;;14.37;11.80;;;17.10;99.90;;;16.69;84.39;101262.19;5047473;28;20262;-73
2023/08/23 05:42:19;;;;;;;17.90;10.33;;;17.10;99.90;;;16.75;83.92;101262.47;5039708;28;20308;-74
2023/08/23 05:44:52;;;;;;;19.27;12.37;;;17.20;99.90;;;16.72;84.58;101264.50;5034091;28;20230;-76
2023/08/23 05:47:24;;;;;;;17.53;13.03;;;17.10;99.90;;;16.70;85.51;101276.53;5033836;28;20740;-75
2023/08/23 05:49:56;;;;;;;21.03;12.90;;;17.10;99.90;;;16.74;84.42;101272.44;5033703;28;20546;-75
2023/08/23 05:52:28;;;;;;;13.37;11.63;;;17.20;99.90;;;16.76;84.62;101285.75;5033930;28;20191;-76
2023/08/23 05:55:00;;;;;;;18.57;12.77;;;17.20;99.90;;;16.75;85.91;101284.09;5040330;28;20294;-74
2023/08/23 05:57:32;;;;;;;15.77;12.47;;;17.20;99.90;;;16.79;86.04;101291.63;5035514;28;20298;-74
2023/08/23 06:00:05;;;;;;;21.63;13.17;;;17.20;99.90;;;16.83;85.94;101292.09;5033800;28;20691;-74
2023/08/23 06:02:37;;;;;;;15.53;11.43;;;17.30;99.90;;;16.87;85.59;101299.66;5033743;28;20282;-75
2023/08/23 06:05:10;;;;;;;21.00;12.67;;;17.40;99.90;;;16.89;86.36;101292.19;5033976;28;20198;-74
2023/08/23 06:07:43;;;;;;;21.00;13.73;;;17.40;99.90;;;16.93;86.71;101293.50;5033645;28;20700;-74
2023/08/23 06:10:16;;;;;;;22.00;13.40;;;17.40;99.90;;;16.96;87.35;101292.25;5033599;28;20285;-76
2023/08/23 06:12:48;;;;;;;17.57;12.67;;;17.50;99.90;;;16.99;87.21;101289.19;5033284;28;20191;-75
2023/08/23 06:15:21;;;;;;;21.80;12.93;;;17.50;99.90;;;17.02;87.03;101291.53;5033223;28;20230;-76
2023/08/23 06:17:55;;;;;;;19.13;12.87;;;17.50;99.90;;;17.07;88.26;101295.34;5033139;28;20338;-77
2023/08/23 06:20:28;;;;;;;19.73;12.80;;;17.60;99.90;;;17.12;87.22;101300.19;5034080;28;20195;-79
2023/08/23 06:23:01;;;;;;;15.47;11.83;;;17.60;99.90;;;17.16;87.67;101294.19;5033585;28;20647;-79
2023/08/23 06:25:34;;;;;;;14.83;11.67;;;17.70;99.90;;;17.20;87.11;101294.66;5033542;28;20199;-78
2023/08/23 06:28:06;;;;;;;22.80;12.30;;;17.70;99.90;;;17.23;87.57;101294.28;5033663;28;20198;-79
2023/08/23 06:30:40;;;;;;;20.50;12.17;;;17.70;99.90;;;17.26;87.45;101288.47;5033523;28;20214;-78
2023/08/23 06:33:12;;;;;;;22.70;11.33;;;17.80;99.90;;;17.31;87.37;101286.06;5033685;28;20230;-79
2023/08/23 06:35:43;;;;;;;18.47;10.60;;;17.80;99.90;;;17.36;87.38;101291.75;5034195;28;20202;-78
2023/08/23 06:38:15;;;;;;;16.20;10.60;;;17.90;99.90;;;17.39;86.83;101294.06;5033982;28;20284;-79
2023/08/23 06:40:47;;;;;;;19.30;8.77;;;17.90;99.90;;;17.43;86.49;101295.34;5034093;28;20187;-79
2023/08/23 06:43:26;;;;;;;20.13;10.13;;;18.00;99.90;;;17.49;86.43;101282.91;5034678;28;20631;-79
2023/08/23 06:46:00;;;;;;;19.50;9.70;;;18.00;99.90;;;17.52;86.40;101279.81;5034000;28;20210;-78
2023/08/23 06:48:32;;;;;;;14.40;8.67;;;18.10;99.90;;;17.57;87.54;101289.06;5033499;28;20190;-78
2023/08/23 06:51:05;;;;;;;19.77;10.27;;;18.10;99.90;;;17.66;87.64;101290.63;5033566;28;20192;-77
2023/08/23 06:53:37;;;;;;;13.33;9.80;;;18.20;99.90;;;17.69;88.08;101287.53;5033643;28;20228;-78
2023/08/23 06:56:13;;;;;;;17.93;9.80;;;18.20;99.90;;;17.75;88.17;101302.16;5037211;28;20285;-78
2023/08/23 06:58:45;;;;;;;16.73;9.60;;;18.30;99.90;;;17.76;87.91;101294.88;5037361;28;20308;-78
2023/08/23 07:01:18;;;;;;;15.17;9.10;;;18.40;99.90;;;17.79;87.58;101300.75;5037112;28;20290;-78
2023/08/23 07:03:50;;;;;;;15.37;8.30;;;18.40;99.90;;;17.83;87.10;101293.91;5037259;28;20249;-78
2023/08/23 07:06:22;;;;;;;12.73;8.03;;;18.40;99.90;;;17.87;86.95;101297.09;5037138;28;20245;-78
2023/08/23 07:08:55;;;;;;;15.47;9.40;;;18.40;99.90;;;17.90;86.50;101297.53;5036957;28;20199;-78
2023/08/23 07:11:27;;;;;;;14.60;8.60;;;18.50;99.90;;;17.94;86.12;101288.00;5036604;28;20653;-78
2023/08/23 07:13:59;;;;;;;10.23;8.07;;;18.50;99.90;;;17.97;85.93;101297.59;5037449;28;20262;-78
2023/08/23 07:16:32;;;;;;;12.03;6.80;;;18.60;99.90;;;17.98;85.82;101300.09;5036782;28;20191;-78
2023/08/23 07:19:05;;;;;;;12.20;6.90;;;18.50;99.90;;;18.00;85.56;101302.63;5036468;28;20680;-78
2023/08/23 07:21:37;;;;;;;14.90;6.53;;;18.50;99.90;;;18.03;85.96;101313.06;5036740;28;20197;-78
2023/08/23 07:24:10;;;;;;;13.90;8.43;;;18.60;99.90;;;18.11;85.74;101310.22;5036670;28;20318;-78
2023/08/23 07:26:42;;;;;;;14.97;8.73;;;18.70;99.90;;;18.09;86.38;101313.13;5036605;28;20195;-78
2023/08/23 07:29:16;;;;;;;12.67;8.00;;;18.70;99.90;;;18.09;86.45;101317.69;5037200;28;20193;-79
2023/08/23 07:31:48;;;;;;;14.83;8.23;;;18.60;99.90;;;18.12;86.48;101312.72;5036976;28;20245;-78
2023/08/23 07:34:20;;;;;;;15.90;8.20;;;18.60;99.90;;;18.22;86.00;101315.09;5036625;28;20222;-79
2023/08/23 07:36:53;;;;;;;14.27;8.53;;;18.80;99.90;;;18.28;85.95;101310.78;5036867;28;20187;-79
2023/08/23 07:39:27;;;;;;;15.23;7.80;;;18.80;99.90;;;18.32;85.53;101306.63;5036909;28;20214;-79
2023/08/23 07:41:59;;;;;;;9.97;6.70;;;18.90;99.90;;;18.37;85.63;101307.72;5037143;28;20210;-78
2023/08/23 07:44:31;;;;;;;10.93;8.40;;;18.90;99.90;;;18.45;84.86;101307.56;5036812;28;20293;-79
2023/08/23 07:47:04;;;;;;;11.13;6.53;;;19.00;99.90;;;18.52;85.11;101315.78;5036785;28;20305;-79
2023/08/23 07:49:37;;;;;;;16.70;8.50;;;19.10;99.90;;;18.59;85.41;101311.25;5036691;28;20265;-78
2023/08/23 07:52:10;;;;;;;10.70;7.87;;;19.20;99.90;;;18.69;84.32;101315.28;5036654;28;20226;-79
2023/08/23 07:54:42;;;;;;;11.83;6.60;;;19.30;99.90;;;18.80;83.50;101321.19;5036620;28;20288;-79
2023/08/23 07:57:14;;;;;;;14.60;8.20;;;19.40;99.90;;;18.85;83.15;101329.53;5036411;28;20186;-79
2023/08/23 07:59:46;;;;;;;14.60;7.83;;;19.40;99.90;;;18.96;82.75;101321.69;5036176;28;20306;-79
2023/08/23 08:02:19;;;;;;;13.50;7.63;;;19.50;99.90;;;18.99;83.26;101328.56;5036746;28;20195;-79
2023/08/23 08:04:51;;;;;;;15.87;8.90;;;19.60;99.90;;;19.07;80.83;101331.13;5035756;28;20254;-79
2023/08/23 08:07:23;;;;;;;10.20;7.60;;;19.60;99.90;;;19.08;82.71;101330.06;5036308;28;20210;-79
2023/08/23 08:10:17;;;;;;;13.00;8.30;;;19.70;99.90;;;19.13;82.50;101327.59;5036128;28;20218;-80
2023/08/23 08:12:49;;;;;;;15.37;8.80;;;19.70;99.90;;;19.23;79.61;101322.63;5036415;28;20202;-79
2023/08/23 08:15:22;;;;;;;13.93;8.13;;;19.80;99.90;;;19.26;80.98;101319.50;5036322;28;20281;-79
2023/08/23 08:17:55;;;;;;;12.10;6.83;;;19.90;99.90;;;19.32;80.21;101315.97;5035519;28;20676;-79
2023/08/23 08:20:27;;;;;;;12.57;7.07;;;20.00;99.90;;;19.47;80.15;101319.41;5035406;28;20223;-79
2023/08/23 08:22:59;;;;;;;12.27;7.70;;;20.10;99.90;;;19.49;80.79;101322.75;5036235;28;20262;-79
2023/08/23 08:25:31;;;;;;;10.63;7.40;;;20.20;99.90;;;19.61;80.28;101326.56;5036194;28;20223;-78
2023/08/23 08:28:03;;;;;;;13.83;8.80;;;20.20;99.90;;;19.73;78.25;101335.78;5036047;28;20270;-78
2023/08/23 08:30:35;;;;;;;13.60;8.60;;;20.40;99.90;;;19.76;77.85;101331.81;5036703;28;20274;-80
2023/08/23 08:33:08;;;;;;;17.13;9.63;;;20.40;99.90;;;19.86;77.07;101334.16;5035902;28;20711;-79
2023/08/23 08:35:40;;;;;;;14.10;8.27;;;20.50;99.90;;;19.84;78.33;101333.50;5036164;28;20191;-79
2023/08/23 08:38:12;;;;;;;15.33;8.50;;;20.40;99.90;;;19.88;79.16;101332.03;5036321;28;20286;-79
2023/08/23 08:40:44;;;;;;;15.50;8.27;;;20.40;99.90;;;19.95;77.61;101332.91;5036092;28;20191;-79
2023/08/23 08:43:17;;;;;;;14.93;7.90;;;20.60;99.90;;;20.08;76.80;101341.91;5036806;28;20273;-79
2023/08/23 08:45:49;;;;;;;15.40;9.70;;;20.60;99.90;;;20.15;75.42;101340.03;5036291;28;20214;-79
2023/08/23 08:48:23;;;;;;;20.03;10.73;;;20.80;99.90;;;20.19;76.31;101335.00;5036236;28;20198;-79
2023/08/23 08:50:59;;;;;;;15.50;8.93;;;20.70;99.90;;;20.29;74.59;101340.91;5036954;28;20222;-79
2023/08/23 08:53:34;;;;;;;16.27;9.43;;;20.90;99.90;;;20.47;75.20;101332.94;5036742;28;20712;-79
2023/08/23 08:56:08;;;;;;;17.07;8.93;;;21.00;99.90;;;20.58;74.47;101335.00;5036891;28;20277;-79
2023/08/23 08:58:40;;;;;;;17.90;8.93;;;21.20;99.90;;;20.69;74.25;101342.53;5036304;28;20217;-79
2023/08/23 09:01:16;;;;;;;12.90;8.33;;;21.30;99.90;;;20.75;75.24;101347.13;5036538;28;20290;-79
2023/08/23 09:03:50;;;;;;;15.47;8.60;;;21.30;99.90;;;20.85;75.54;101346.69;5036766;28;20735;-79
2023/08/23 09:06:24;;;;;;;14.47;8.33;;;21.50;99.90;;;20.88;75.45;101349.00;5037012;28;20237;-79
2023/08/23 09:08:56;;;;;;;15.03;8.63;;;21.50;99.90;;;20.92;74.21;101342.09;5036766;28;20187;-80
2023/08/23 09:11:29;;;;;;;14.53;8.97;;;21.50;99.90;;;20.97;72.50;101347.72;5037082;28;20263;-80
2023/08/23 09:14:12;;;;;;;16.60;10.27;;;21.50;99.90;;;21.04;72.92;101340.34;5037136;28;20313;-80
2023/08/23 09:16:45;;;;;;;15.73;9.60;;;21.60;99.90;;;21.07;72.89;101344.53;5036823;28;20270;-80
2023/08/23 09:19:18;;;;;;;11.37;8.57;;;21.60;99.90;;;21.10;73.72;101344.97;5036468;28;20269;-80
2023/08/23 09:21:52;;;;;;;14.27;9.53;;;21.60;99.90;;;21.13;72.67;101355.44;5035541;28;20195;-79
2023/08/23 09:24:24;;;;;;;16.53;10.37;;;21.60;99.90;;;21.18;71.54;101344.75;5035424;28;20309;-79
2023/08/23 09:26:56;;;;;;;16.50;11.03;;;21.60;99.90;;;21.13;71.42;101344.53;5035994;28;20286;-79
2023/08/23 09:29:28;;;;;;;12.80;9.40;;;21.60;99.90;;;21.17;71.79;101342.22;5035350;28;20191;-79
2023/08/23 09:32:05;;;;;;;11.87;8.63;;;21.60;99.90;;;21.22;71.10;101353.31;5034543;28;20187;-79
2023/08/23 09:34:38;;;;;;;16.30;11.33;;;21.60;99.90;;;21.31;68.36;101346.56;5034259;28;20258;-78
2023/08/23 09:37:11;;;;;;;10.17;8.73;;;21.80;99.90;;;21.42;69.01;101343.19;5034059;28;20740;-77
2023/08/23 09:39:43;;;;;;;11.47;9.07;;;21.90;99.90;;;21.47;69.88;101348.78;5034420;28;20306;-77
2023/08/23 09:42:19;;;;;;;9.43;7.27;;;22.00;99.90;;;21.57;69.92;101334.72;5034391;28;20210;-63
2023/08/23 09:44:55;;;;;;;14.47;9.53;;;22.00;99.90;;;21.75;68.37;101332.94;5033979;28;20232;-74
2023/08/23 09:47:32;;;;;;;10.87;7.77;;;22.20;99.90;;;21.86;67.72;101333.28;5034112;28;20244;-73
2023/08/23 09:50:10;;;;;;;12.30;9.10;;;22.00;99.90;;;21.99;69.52;101344.97;5035168;28;20604;-74
2023/08/23 09:52:45;;;;;;;15.17;10.03;;;22.50;99.90;;;22.12;67.59;101333.13;5035117;28;20688;-74
2023/08/23 09:55:18;;;;;;;14.70;10.27;;;22.60;99.90;;;22.18;65.43;101338.53;5034915;28;20191;-74
2023/08/23 09:57:51;;;;;;;13.57;8.73;;;22.60;99.90;;;22.22;65.30;101333.47;5035129;28;20222;-75
2023/08/23 10:00:27;;;;;;;11.13;7.73;;;22.70;99.90;;;22.22;64.15;101336.22;5034510;28;20250;-75
2023/08/23 10:02:59;;;;;;;10.40;7.60;;;22.70;99.80;;;22.31;61.92;101332.13;5034470;28;20226;-75
2023/08/23 10:05:35;;;;;;;9.43;7.10;;;22.70;98.50;;;22.46;61.58;101335.38;5034540;28;20195;-75
2023/08/23 10:08:10;;;;;;;12.80;6.90;;;22.90;98.20;;;22.65;62.50;101334.34;5034881;28;20221;-75
2023/08/23 10:10:49;;;;;;;16.10;9.70;;;23.00;98.90;;;22.78;63.80;101344.31;5034525;28;20190;-75
2023/08/23 10:13:23;;;;;;;11.37;9.93;;;23.20;99.70;;;22.88;64.76;101343.81;5034585;28;20226;-75
2023/08/23 10:15:57;;;;;;;12.43;9.53;;;23.30;99.90;;;22.95;63.57;101344.53;5034657;28;20217;-75
2023/08/23 10:18:33;;;;;;;11.80;9.00;;;23.40;99.10;;;23.04;63.93;101335.84;5034098;28;20201;-75
2023/08/23 10:21:08;;;;;;;12.07;10.07;;;23.50;99.30;;;23.08;61.03;101333.50;5034418;28;20211;-75
2023/08/23 10:23:42;;;;;;;11.10;8.80;;;23.50;97.60;;;23.17;63.56;101326.66;5034629;28;20333;-75
2023/08/23 10:26:22;;;;;;;8.93;5.83;;;23.60;99.10;;;23.37;58.33;101323.66;5033615;28;20213;-74
2023/08/23 10:28:55;;;;;;;10.27;6.73;;;23.80;96.30;;;23.48;60.48;101325.66;5033205;28;20230;-74
2023/08/23 10:31:29;;;;;;;11.30;8.13;;;23.90;96.90;;;23.50;58.91;101324.34;5034175;28;20238;-74